sensor_id;sensor_type;location;lat;lon;timestamp;temperature;humidity
20246;DHT22;10281;54.406;18.556;2023-12-20T00:01:00;7.80;99.90
20246;DHT22;10281;54.406;18.556;2023-12-20T00:03:27;7.80;99.90
20246;DHT22;10281;54.406;18.556;2023-12-20T00:05:54;7.80;99.90
20246;DHT22;10281;54.406;18.556;2023-12-20T00:08:21;7.90;99.90
20246;DHT22;10281;54.406;18.556;2023-12-20T00:10:48;7.90;99.90
20246;DHT22;10281;54.406;18.556;2023-12-20T00:13:14;7.90;99.90
20246;DHT22;10281;54.406;18.556;2023-12-20T00:15:41;7.90;99.90
20246;DHT22;10281;54.406;18.556;2023-12-20T00:18:07;7.80;99.90
20246;DHT22;10281;54.406;18.556;2023-12-20T00:20:34;7.80;99.90
20246;DHT22;10281;54.406;18.556;2023-12-20T00:23:01;7.80;99.90
20246;DHT22;10281;54.406;18.556;2023-12-20T00:25:29;7.80;99.90
20246;DHT22;10281;54.406;18.556;2023-12-20T00:27:55;7.80;99.90
20246;DHT22;10281;54.406;18.556;2023-12-20T00:30:22;7.80;99.90
20246;DHT22;10281;54.406;18.556;2023-12-20T00:32:48;7.80;99.90
20246;DHT22;10281;54.406;18.556;2023-12-20T00:35:16;7.70;99.90
20246;DHT22;10281;54.406;18.556;2023-12-20T00:37:43;7.70;99.90
20246;DHT22;10281;54.406;18.556;2023-12-20T00:40:10;7.70;99.90
20246;DHT22;10281;54.406;18.556;2023-12-20T00:42:37;7.60;99.90
20246;DHT22;10281;54.406;18.556;2023-12-20T00:45:05;7.60;99.90
20246;DHT22;10281;54.406;18.556;2023-12-20T00:47:31;7.60;99.90
20246;DHT22;10281;54.406;18.556;2023-12-20T00:49:58;7.50;99.90
20246;DHT22;10281;54.406;18.556;2023-12-20T00:52:25;7.50;99.90
20246;DHT22;10281;54.406;18.556;2023-12-20T00:54:52;7.40;99.90
20246;DHT22;10281;54.406;18.556;2023-12-20T00:57:19;7.40;99.90
20246;DHT22;10281;54.406;18.556;2023-12-20T00:59:45;7.30;99.90
20246;DHT22;10281;54.406;18.556;2023-12-20T01:02:12;7.30;99.90
20246;DHT22;10281;54.406;18.556;2023-12-20T01:04:39;7.20;99.90
20246;DHT22;10281;54.406;18.556;2023-12-20T01:07:05;7.10;99.90
20246;DHT22;10281;54.406;18.556;2023-12-20T01:09:32;7.10;99.90
20246;DHT22;10281;54.406;18.556;2023-12-20T01:11:58;7.10;99.90
20246;DHT22;10281;54.406;18.556;2023-12-20T01:14:25;7.00;99.90
20246;DHT22;10281;54.406;18.556;2023-12-20T01:16:52;7.00;99.90
20246;DHT22;10281;54.406;18.556;2023-12-20T01:19:18;7.00;99.90
20246;DHT22;10281;54.406;18.556;2023-12-20T01:21:45;6.90;99.90
20246;DHT22;10281;54.406;18.556;2023-12-20T01:24:11;6.90;99.90
20246;DHT22;10281;54.406;18.556;2023-12-20T01:26:38;6.80;99.90
20246;DHT22;10281;54.406;18.556;2023-12-20T01:29:05;6.80;99.90
20246;DHT22;10281;54.406;18.556;2023-12-20T01:31:31;6.80;99.90
20246;DHT22;10281;54.406;18.556;2023-12-20T01:33:58;6.80;99.90
20246;DHT22;10281;54.406;18.556;2023-12-20T01:36:24;6.80;99.90
20246;DHT22;10281;54.406;18.556;2023-12-20T01:38:51;6.80;99.90
20246;DHT22;10281;54.406;18.556;2023-12-20T01:41:18;6.80;99.90
20246;DHT22;10281;54.406;18.556;2023-12-20T01:43:44;6.70;99.90
20246;DHT22;10281;54.406;18.556;2023-12-20T01:46:11;6.70;99.90
20246;DHT22;10281;54.406;18.556;2023-12-20T01:48:38;6.70;99.90
20246;DHT22;10281;54.406;18.556;2023-12-20T01:51:05;6.50;99.90
20246;DHT22;10281;54.406;18.556;2023-12-20T01:53:32;6.60;99.90
20246;DHT22;10281;54.406;18.556;2023-12-20T01:55:59;6.50;99.90
20246;DHT22;10281;54.406;18.556;2023-12-20T01:58:26;6.50;99.90
20246;DHT22;10281;54.406;18.556;2023-12-20T02:00:53;6.40;99.90
20246;DHT22;10281;54.406;18.556;2023-12-20T02:03:21;6.40;99.90
20246;DHT22;10281;54.406;18.556;2023-12-20T02:05:48;6.40;99.90
20246;DHT22;10281;54.406;18.556;2023-12-20T02:08:14;6.40;99.90
20246;DHT22;10281;54.406;18.556;2023-12-20T02:10:41;6.30;99.90
20246;DHT22;10281;54.406;18.556;2023-12-20T02:13:08;6.30;99.90
20246;DHT22;10281;54.406;18.556;2023-12-20T02:15:35;6.30;99.90
20246;DHT22;10281;54.406;18.556;2023-12-20T02:18:03;6.30;99.90
20246;DHT22;10281;54.406;18.556;2023-12-20T02:20:30;6.30;99.90
20246;DHT22;10281;54.406;18.556;2023-12-20T02:22:57;6.20;99.90
20246;DHT22;10281;54.406;18.556;2023-12-20T02:25:23;6.20;99.90
20246;DHT22;10281;54.406;18.556;2023-12-20T02:27:50;6.20;99.90
20246;DHT22;10281;54.406;18.556;2023-12-20T02:30:17;6.10;99.90
20246;DHT22;10281;54.406;18.556;2023-12-20T02:32:44;6.10;99.90
20246;DHT22;10281;54.406;18.556;2023-12-20T02:35:11;6.10;99.90
20246;DHT22;10281;54.406;18.556;2023-12-20T02:37:37;6.00;99.90
20246;DHT22;10281;54.406;18.556;2023-12-20T02:40:04;6.00;99.90
20246;DHT22;10281;54.406;18.556;2023-12-20T02:42:31;6.00;99.90
20246;DHT22;10281;54.406;18.556;2023-12-20T02:44:58;6.00;99.90
20246;DHT22;10281;54.406;18.556;2023-12-20T02:47:24;6.10;99.90
20246;DHT22;10281;54.406;18.556;2023-12-20T02:49:51;6.00;99.90
20246;DHT22;10281;54.406;18.556;2023-12-20T02:52:19;6.00;99.90
20246;DHT22;10281;54.406;18.556;2023-12-20T02:54:45;6.00;99.90
20246;DHT22;10281;54.406;18.556;2023-12-20T02:57:12;6.00;99.90
20246;DHT22;10281;54.406;18.556;2023-12-20T02:59:38;6.10;99.90
20246;DHT22;10281;54.406;18.556;2023-12-20T03:02:05;6.10;99.90
20246;DHT22;10281;54.406;18.556;2023-12-20T03:04:31;6.00;99.90
20246;DHT22;10281;54.406;18.556;2023-12-20T03:06:58;6.00;99.90
20246;DHT22;10281;54.406;18.556;2023-12-20T03:09:25;6.00;99.90
20246;DHT22;10281;54.406;18.556;2023-12-20T03:11:51;6.00;99.90
20246;DHT22;10281;54.406;18.556;2023-12-20T03:14:18;5.90;99.90
20246;DHT22;10281;54.406;18.556;2023-12-20T03:16:49;5.90;99.90
20246;DHT22;10281;54.406;18.556;2023-12-20T03:19:16;5.90;99.90
20246;DHT22;10281;54.406;18.556;2023-12-20T03:21:43;5.90;99.90
20246;DHT22;10281;54.406;18.556;2023-12-20T03:24:09;5.90;99.90
20246;DHT22;10281;54.406;18.556;2023-12-20T03:26:36;5.90;99.90
20246;DHT22;10281;54.406;18.556;2023-12-20T03:29:02;6.00;99.90
20246;DHT22;10281;54.406;18.556;2023-12-20T03:31:29;6.00;99.90
20246;DHT22;10281;54.406;18.556;2023-12-20T03:33:56;6.00;99.90
20246;DHT22;10281;54.406;18.556;2023-12-20T03:36:22;6.00;99.90
20246;DHT22;10281;54.406;18.556;2023-12-20T03:41:22;6.10;99.90
20246;DHT22;10281;54.406;18.556;2023-12-20T03:43:48;6.00;99.90
20246;DHT22;10281;54.406;18.556;2023-12-20T03:46:15;6.00;99.90
20246;DHT22;10281;54.406;18.556;2023-12-20T03:48:41;6.10;99.90
20246;DHT22;10281;54.406;18.556;2023-12-20T03:51:08;6.10;99.90
20246;DHT22;10281;54.406;18.556;2023-12-20T03:53:34;6.00;99.90
20246;DHT22;10281;54.406;18.556;2023-12-20T03:56:01;6.00;99.90
20246;DHT22;10281;54.406;18.556;2023-12-20T03:58:28;6.00;99.90
20246;DHT22;10281;54.406;18.556;2023-12-20T04:00:54;6.00;99.90
20246;DHT22;10281;54.406;18.556;2023-12-20T04:03:21;6.00;99.90
20246;DHT22;10281;54.406;18.556;2023-12-20T04:05:47;5.90;99.90
20246;DHT22;10281;54.406;18.556;2023-12-20T04:08:14;5.80;99.90
20246;DHT22;10281;54.406;18.556;2023-12-20T04:10:41;5.80;99.90
20246;DHT22;10281;54.406;18.556;2023-12-20T04:13:07;5.80;99.90
20246;DHT22;10281;54.406;18.556;2023-12-20T04:15:34;5.80;99.90
20246;DHT22;10281;54.406;18.556;2023-12-20T04:18:00;5.80;99.90
20246;DHT22;10281;54.406;18.556;2023-12-20T04:20:27;5.80;99.90
20246;DHT22;10281;54.406;18.556;2023-12-20T04:22:54;5.70;99.90
20246;DHT22;10281;54.406;18.556;2023-12-20T04:25:20;5.70;99.90
20246;DHT22;10281;54.406;18.556;2023-12-20T04:27:47;5.70;99.90
20246;DHT22;10281;54.406;18.556;2023-12-20T04:30:13;5.70;99.90
20246;DHT22;10281;54.406;18.556;2023-12-20T04:32:40;5.70;99.90
20246;DHT22;10281;54.406;18.556;2023-12-20T04:35:07;5.70;99.90
20246;DHT22;10281;54.406;18.556;2023-12-20T04:37:34;5.60;99.90
20246;DHT22;10281;54.406;18.556;2023-12-20T04:40:01;5.60;99.90
20246;DHT22;10281;54.406;18.556;2023-12-20T04:42:27;5.60;99.90
20246;DHT22;10281;54.406;18.556;2023-12-20T04:44:54;5.60;99.90
20246;DHT22;10281;54.406;18.556;2023-12-20T04:47:21;5.60;99.90
20246;DHT22;10281;54.406;18.556;2023-12-20T04:49:48;5.50;99.90
20246;DHT22;10281;54.406;18.556;2023-12-20T04:52:15;5.50;99.90
20246;DHT22;10281;54.406;18.556;2023-12-20T04:54:41;5.40;99.90
20246;DHT22;10281;54.406;18.556;2023-12-20T04:57:08;5.40;99.90
20246;DHT22;10281;54.406;18.556;2023-12-20T04:59:34;5.40;99.90
20246;DHT22;10281;54.406;18.556;2023-12-20T05:02:01;5.40;99.90
20246;DHT22;10281;54.406;18.556;2023-12-20T05:04:28;5.30;99.90
20246;DHT22;10281;54.406;18.556;2023-12-20T05:06:54;5.30;99.90
20246;DHT22;10281;54.406;18.556;2023-12-20T05:09:21;5.20;99.90
20246;DHT22;10281;54.406;18.556;2023-12-20T05:11:47;5.20;99.90
20246;DHT22;10281;54.406;18.556;2023-12-20T05:14:14;5.20;99.90
20246;DHT22;10281;54.406;18.556;2023-12-20T05:16:41;5.20;99.90
20246;DHT22;10281;54.406;18.556;2023-12-20T05:19:07;5.20;99.90
20246;DHT22;10281;54.406;18.556;2023-12-20T05:21:34;5.10;99.90
20246;DHT22;10281;54.406;18.556;2023-12-20T05:24:01;5.10;99.90
20246;DHT22;10281;54.406;18.556;2023-12-20T05:26:28;5.10;99.90
20246;DHT22;10281;54.406;18.556;2023-12-20T05:28:55;5.10;99.90
20246;DHT22;10281;54.406;18.556;2023-12-20T05:31:22;5.10;99.90
20246;DHT22;10281;54.406;18.556;2023-12-20T05:33:48;5.10;99.90
20246;DHT22;10281;54.406;18.556;2023-12-20T05:36:15;5.10;99.90
20246;DHT22;10281;54.406;18.556;2023-12-20T05:38:42;5.10;99.90
20246;DHT22;10281;54.406;18.556;2023-12-20T05:41:09;5.10;99.90
20246;DHT22;10281;54.406;18.556;2023-12-20T05:43:35;5.00;99.90
20246;DHT22;10281;54.406;18.556;2023-12-20T05:46:02;5.00;99.90
20246;DHT22;10281;54.406;18.556;2023-12-20T05:48:28;5.10;99.90
20246;DHT22;10281;54.406;18.556;2023-12-20T05:50:55;5.10;99.90
20246;DHT22;10281;54.406;18.556;2023-12-20T05:53:22;5.10;99.90
20246;DHT22;10281;54.406;18.556;2023-12-20T05:55:48;5.00;99.90
20246;DHT22;10281;54.406;18.556;2023-12-20T05:58:15;5.00;99.90
20246;DHT22;10281;54.406;18.556;2023-12-20T06:00:41;5.00;99.90
20246;DHT22;10281;54.406;18.556;2023-12-20T06:03:08;5.00;99.90
20246;DHT22;10281;54.406;18.556;2023-12-20T06:05:35;5.00;99.90
20246;DHT22;10281;54.406;18.556;2023-12-20T06:08:01;4.90;99.90
20246;DHT22;10281;54.406;18.556;2023-12-20T06:10:29;5.00;99.90
20246;DHT22;10281;54.406;18.556;2023-12-20T06:12:56;4.90;99.90
20246;DHT22;10281;54.406;18.556;2023-12-20T06:15:24;4.90;99.90
20246;DHT22;10281;54.406;18.556;2023-12-20T06:17:51;4.80;99.90
20246;DHT22;10281;54.406;18.556;2023-12-20T06:20:17;4.90;99.90
20246;DHT22;10281;54.406;18.556;2023-12-20T06:22:44;4.80;99.90
20246;DHT22;10281;54.406;18.556;2023-12-20T06:25:10;4.80;99.90
20246;DHT22;10281;54.406;18.556;2023-12-20T06:27:37;4.80;99.90
20246;DHT22;10281;54.406;18.556;2023-12-20T06:30:05;4.80;99.90
20246;DHT22;10281;54.406;18.556;2023-12-20T06:32:31;4.70;99.90
20246;DHT22;10281;54.406;18.556;2023-12-20T06:34:58;4.70;99.90
20246;DHT22;10281;54.406;18.556;2023-12-20T06:37:25;4.70;99.90
20246;DHT22;10281;54.406;18.556;2023-12-20T06:39:51;4.70;99.90
20246;DHT22;10281;54.406;18.556;2023-12-20T06:42:18;4.70;99.90
20246;DHT22;10281;54.406;18.556;2023-12-20T06:44:45;4.70;99.90
20246;DHT22;10281;54.406;18.556;2023-12-20T06:47:11;4.70;99.90
20246;DHT22;10281;54.406;18.556;2023-12-20T06:49:40;4.60;99.90
20246;DHT22;10281;54.406;18.556;2023-12-20T06:52:06;4.50;99.90
20246;DHT22;10281;54.406;18.556;2023-12-20T06:54:33;4.50;99.90
20246;DHT22;10281;54.406;18.556;2023-12-20T06:57:00;4.50;99.90
20246;DHT22;10281;54.406;18.556;2023-12-20T06:59:29;4.40;99.90
20246;DHT22;10281;54.406;18.556;2023-12-20T07:01:55;4.40;99.90
20246;DHT22;10281;54.406;18.556;2023-12-20T07:04:22;4.40;99.90
20246;DHT22;10281;54.406;18.556;2023-12-20T07:06:49;4.30;99.90
20246;DHT22;10281;54.406;18.556;2023-12-20T07:09:19;4.30;99.90
20246;DHT22;10281;54.406;18.556;2023-12-20T07:11:46;4.30;99.90
20246;DHT22;10281;54.406;18.556;2023-12-20T07:14:14;4.30;99.90
20246;DHT22;10281;54.406;18.556;2023-12-20T07:16:40;4.30;99.90
20246;DHT22;10281;54.406;18.556;2023-12-20T07:19:07;4.30;99.90
20246;DHT22;10281;54.406;18.556;2023-12-20T07:21:34;4.30;99.90
20246;DHT22;10281;54.406;18.556;2023-12-20T07:24:00;4.30;99.90
20246;DHT22;10281;54.406;18.556;2023-12-20T07:26:27;4.30;99.90
20246;DHT22;10281;54.406;18.556;2023-12-20T07:28:54;4.30;99.90
20246;DHT22;10281;54.406;18.556;2023-12-20T07:31:20;4.30;99.90
20246;DHT22;10281;54.406;18.556;2023-12-20T07:33:47;4.30;99.90
20246;DHT22;10281;54.406;18.556;2023-12-20T07:36:14;4.30;99.90
20246;DHT22;10281;54.406;18.556;2023-12-20T07:38:41;4.30;99.90
20246;DHT22;10281;54.406;18.556;2023-12-20T07:41:10;4.30;99.90
20246;DHT22;10281;54.406;18.556;2023-12-20T07:43:37;4.20;99.90
20246;DHT22;10281;54.406;18.556;2023-12-20T07:46:06;4.30;99.90
20246;DHT22;10281;54.406;18.556;2023-12-20T07:48:35;4.20;99.90
20246;DHT22;10281;54.406;18.556;2023-12-20T07:51:03;4.20;99.90
20246;DHT22;10281;54.406;18.556;2023-12-20T07:53:30;4.30;99.90
20246;DHT22;10281;54.406;18.556;2023-12-20T07:55:56;4.30;99.90
20246;DHT22;10281;54.406;18.556;2023-12-20T07:58:23;4.30;99.90
20246;DHT22;10281;54.406;18.556;2023-12-20T08:00:50;4.30;99.90
20246;DHT22;10281;54.406;18.556;2023-12-20T08:03:16;4.40;99.90
20246;DHT22;10281;54.406;18.556;2023-12-20T08:05:43;4.40;99.90
20246;DHT22;10281;54.406;18.556;2023-12-20T08:08:09;4.40;99.90
20246;DHT22;10281;54.406;18.556;2023-12-20T08:10:36;4.40;99.90
20246;DHT22;10281;54.406;18.556;2023-12-20T08:13:03;4.40;99.90
20246;DHT22;10281;54.406;18.556;2023-12-20T08:15:29;4.50;99.90
20246;DHT22;10281;54.406;18.556;2023-12-20T08:17:56;4.50;99.90
20246;DHT22;10281;54.406;18.556;2023-12-20T08:20:23;4.50;99.90
20246;DHT22;10281;54.406;18.556;2023-12-20T08:22:49;4.50;99.90
20246;DHT22;10281;54.406;18.556;2023-12-20T08:25:16;4.50;99.90
20246;DHT22;10281;54.406;18.556;2023-12-20T08:27:43;4.50;99.90
20246;DHT22;10281;54.406;18.556;2023-12-20T08:30:10;4.60;99.90
20246;DHT22;10281;54.406;18.556;2023-12-20T08:32:36;4.60;99.90
20246;DHT22;10281;54.406;18.556;2023-12-20T08:35:04;4.70;99.90
20246;DHT22;10281;54.406;18.556;2023-12-20T08:37:31;4.70;99.90
20246;DHT22;10281;54.406;18.556;2023-12-20T08:39:58;4.70;99.90
20246;DHT22;10281;54.406;18.556;2023-12-20T08:42:24;4.80;99.90
20246;DHT22;10281;54.406;18.556;2023-12-20T08:44:53;4.90;99.90
20246;DHT22;10281;54.406;18.556;2023-12-20T08:47:19;4.90;99.90
20246;DHT22;10281;54.406;18.556;2023-12-20T08:49:46;5.00;99.90
20246;DHT22;10281;54.406;18.556;2023-12-20T08:52:13;4.90;99.90
20246;DHT22;10281;54.406;18.556;2023-12-20T08:54:40;5.00;99.90
20246;DHT22;10281;54.406;18.556;2023-12-20T08:57:06;5.10;99.90
20246;DHT22;10281;54.406;18.556;2023-12-20T08:59:33;5.10;99.90
20246;DHT22;10281;54.406;18.556;2023-12-20T09:01:59;5.20;99.90
20246;DHT22;10281;54.406;18.556;2023-12-20T09:04:26;5.30;99.90
20246;DHT22;10281;54.406;18.556;2023-12-20T09:06:53;5.30;99.90
20246;DHT22;10281;54.406;18.556;2023-12-20T09:09:19;5.30;99.90
20246;DHT22;10281;54.406;18.556;2023-12-20T09:11:46;5.40;99.90
20246;DHT22;10281;54.406;18.556;2023-12-20T09:14:14;5.40;99.90
20246;DHT22;10281;54.406;18.556;2023-12-20T09:16:40;5.40;99.90
20246;DHT22;10281;54.406;18.556;2023-12-20T09:19:07;5.40;99.90
20246;DHT22;10281;54.406;18.556;2023-12-20T09:21:33;5.50;99.90
20246;DHT22;10281;54.406;18.556;2023-12-20T09:24:00;5.60;99.90
20246;DHT22;10281;54.406;18.556;2023-12-20T09:26:27;5.50;99.90
20246;DHT22;10281;54.406;18.556;2023-12-20T09:28:53;5.50;99.90
20246;DHT22;10281;54.406;18.556;2023-12-20T09:31:20;5.60;99.90
20246;DHT22;10281;54.406;18.556;2023-12-20T09:33:46;5.60;99.90
20246;DHT22;10281;54.406;18.556;2023-12-20T09:36:13;5.70;99.90
20246;DHT22;10281;54.406;18.556;2023-12-20T09:38:39;5.80;99.90
20246;DHT22;10281;54.406;18.556;2023-12-20T09:41:06;5.70;99.90
20246;DHT22;10281;54.406;18.556;2023-12-20T09:43:37;5.70;99.90
20246;DHT22;10281;54.406;18.556;2023-12-20T09:46:06;5.70;99.90
20246;DHT22;10281;54.406;18.556;2023-12-20T09:48:33;5.80;99.90
20246;DHT22;10281;54.406;18.556;2023-12-20T09:51:01;5.80;99.90
20246;DHT22;10281;54.406;18.556;2023-12-20T09:53:28;5.80;99.90
20246;DHT22;10281;54.406;18.556;2023-12-20T09:55:58;5.80;99.90
20246;DHT22;10281;54.406;18.556;2023-12-20T09:58:26;5.90;99.90
20246;DHT22;10281;54.406;18.556;2023-12-20T10:00:53;6.00;99.90
20246;DHT22;10281;54.406;18.556;2023-12-20T10:03:24;6.00;99.90
20246;DHT22;10281;54.406;18.556;2023-12-20T10:05:54;6.10;99.90
20246;DHT22;10281;54.406;18.556;2023-12-20T10:08:24;6.00;99.90
20246;DHT22;10281;54.406;18.556;2023-12-20T10:10:50;6.00;99.90
20246;DHT22;10281;54.406;18.556;2023-12-20T10:13:17;6.10;99.90
20246;DHT22;10281;54.406;18.556;2023-12-20T10:15:44;6.00;99.90
20246;DHT22;10281;54.406;18.556;2023-12-20T10:18:12;6.00;99.90
20246;DHT22;10281;54.406;18.556;2023-12-20T10:20:40;6.10;99.90
20246;DHT22;10281;54.406;18.556;2023-12-20T10:23:08;6.10;99.90
20246;DHT22;10281;54.406;18.556;2023-12-20T10:25:36;6.10;99.90
20246;DHT22;10281;54.406;18.556;2023-12-20T10:28:10;6.20;99.90
20246;DHT22;10281;54.406;18.556;2023-12-20T10:30:38;6.20;99.90
20246;DHT22;10281;54.406;18.556;2023-12-20T10:33:07;6.10;99.90
20246;DHT22;10281;54.406;18.556;2023-12-20T10:35:35;6.20;99.90
20246;DHT22;10281;54.406;18.556;2023-12-20T10:38:04;6.20;99.90
20246;DHT22;10281;54.406;18.556;2023-12-20T10:40:34;6.20;99.90
20246;DHT22;10281;54.406;18.556;2023-12-20T10:43:02;6.20;99.90
20246;DHT22;10281;54.406;18.556;2023-12-20T10:45:30;6.20;99.90
20246;DHT22;10281;54.406;18.556;2023-12-20T10:47:57;6.10;99.90
20246;DHT22;10281;54.406;18.556;2023-12-20T10:50:27;6.20;99.90
20246;DHT22;10281;54.406;18.556;2023-12-20T10:52:55;6.20;99.90
20246;DHT22;10281;54.406;18.556;2023-12-20T10:55:23;6.20;99.90
20246;DHT22;10281;54.406;18.556;2023-12-20T10:57:51;6.20;99.90
20246;DHT22;10281;54.406;18.556;2023-12-20T11:00:19;6.20;99.90
20246;DHT22;10281;54.406;18.556;2023-12-20T11:02:49;6.20;99.90
20246;DHT22;10281;54.406;18.556;2023-12-20T11:05:32;6.20;99.90
20246;DHT22;10281;54.406;18.556;2023-12-20T11:07:59;6.30;99.90
20246;DHT22;10281;54.406;18.556;2023-12-20T11:10:36;6.30;99.90
20246;DHT22;10281;54.406;18.556;2023-12-20T11:13:06;6.40;99.90
20246;DHT22;10281;54.406;18.556;2023-12-20T11:15:36;6.40;99.90
20246;DHT22;10281;54.406;18.556;2023-12-20T11:18:04;6.40;99.90
20246;DHT22;10281;54.406;18.556;2023-12-20T11:20:42;6.40;99.90
20246;DHT22;10281;54.406;18.556;2023-12-20T11:23:09;6.40;99.90
20246;DHT22;10281;54.406;18.556;2023-12-20T11:25:53;6.40;99.90
20246;DHT22;10281;54.406;18.556;2023-12-20T11:28:22;6.50;99.90
20246;DHT22;10281;54.406;18.556;2023-12-20T11:30:52;6.50;99.90
20246;DHT22;10281;54.406;18.556;2023-12-20T11:33:22;6.50;99.90
20246;DHT22;10281;54.406;18.556;2023-12-20T11:35:49;6.50;99.90
20246;DHT22;10281;54.406;18.556;2023-12-20T11:38:16;6.50;99.90
20246;DHT22;10281;54.406;18.556;2023-12-20T11:40:43;6.60;99.90
20246;DHT22;10281;54.406;18.556;2023-12-20T11:43:10;6.50;99.90
20246;DHT22;10281;54.406;18.556;2023-12-20T11:45:37;6.50;99.90
20246;DHT22;10281;54.406;18.556;2023-12-20T11:48:04;6.50;99.90
20246;DHT22;10281;54.406;18.556;2023-12-20T11:50:32;6.60;99.90
20246;DHT22;10281;54.406;18.556;2023-12-20T11:52:59;6.60;99.90
20246;DHT22;10281;54.406;18.556;2023-12-20T11:55:26;6.70;99.90
20246;DHT22;10281;54.406;18.556;2023-12-20T11:57:52;6.70;99.90
20246;DHT22;10281;54.406;18.556;2023-12-20T12:00:20;6.70;99.90
20246;DHT22;10281;54.406;18.556;2023-12-20T12:02:58;6.70;99.90
20246;DHT22;10281;54.406;18.556;2023-12-20T12:05:25;6.70;99.90
20246;DHT22;10281;54.406;18.556;2023-12-20T12:07:52;6.60;99.90
20246;DHT22;10281;54.406;18.556;2023-12-20T12:10:19;6.60;99.90
20246;DHT22;10281;54.406;18.556;2023-12-20T12:12:46;6.60;99.90
20246;DHT22;10281;54.406;18.556;2023-12-20T12:15:14;6.60;99.90
20246;DHT22;10281;54.406;18.556;2023-12-20T12:17:41;6.70;99.90
20246;DHT22;10281;54.406;18.556;2023-12-20T12:20:08;6.60;99.90
20246;DHT22;10281;54.406;18.556;2023-12-20T12:22:36;6.70;99.90
20246;DHT22;10281;54.406;18.556;2023-12-20T12:25:11;6.60;99.90
20246;DHT22;10281;54.406;18.556;2023-12-20T12:27:40;6.60;99.90
20246;DHT22;10281;54.406;18.556;2023-12-20T12:30:09;6.70;99.90
20246;DHT22;10281;54.406;18.556;2023-12-20T12:32:36;6.70;99.90
20246;DHT22;10281;54.406;18.556;2023-12-20T12:35:04;6.70;99.90
20246;DHT22;10281;54.406;18.556;2023-12-20T12:37:34;6.80;99.90
20246;DHT22;10281;54.406;18.556;2023-12-20T12:40:03;6.70;99.90
20246;DHT22;10281;54.406;18.556;2023-12-20T12:42:31;6.70;99.90
20246;DHT22;10281;54.406;18.556;2023-12-20T12:44:57;6.60;99.90
20246;DHT22;10281;54.406;18.556;2023-12-20T12:47:24;6.70;99.90
20246;DHT22;10281;54.406;18.556;2023-12-20T12:49:52;6.70;99.90
20246;DHT22;10281;54.406;18.556;2023-12-20T12:52:19;6.70;99.90
20246;DHT22;10281;54.406;18.556;2023-12-20T12:54:46;6.60;99.90
20246;DHT22;10281;54.406;18.556;2023-12-20T12:57:14;6.60;99.90
20246;DHT22;10281;54.406;18.556;2023-12-20T12:59:42;6.60;99.90
20246;DHT22;10281;54.406;18.556;2023-12-20T13:02:09;6.60;99.90
20246;DHT22;10281;54.406;18.556;2023-12-20T13:04:36;6.60;99.90
20246;DHT22;10281;54.406;18.556;2023-12-20T13:07:03;6.60;99.90
20246;DHT22;10281;54.406;18.556;2023-12-20T13:09:30;6.70;99.90
20246;DHT22;10281;54.406;18.556;2023-12-20T13:11:57;6.70;99.90
20246;DHT22;10281;54.406;18.556;2023-12-20T13:14:24;6.60;99.90
20246;DHT22;10281;54.406;18.556;2023-12-20T13:16:51;6.60;99.90
20246;DHT22;10281;54.406;18.556;2023-12-20T13:19:18;6.60;99.90
20246;DHT22;10281;54.406;18.556;2023-12-20T13:21:44;6.60;99.90
20246;DHT22;10281;54.406;18.556;2023-12-20T13:24:11;6.50;99.90
20246;DHT22;10281;54.406;18.556;2023-12-20T13:26:37;6.60;99.90
20246;DHT22;10281;54.406;18.556;2023-12-20T13:29:04;6.60;99.90
20246;DHT22;10281;54.406;18.556;2023-12-20T13:31:31;6.60;99.90
20246;DHT22;10281;54.406;18.556;2023-12-20T13:33:57;6.60;99.90
20246;DHT22;10281;54.406;18.556;2023-12-20T13:36:24;6.50;99.90
20246;DHT22;10281;54.406;18.556;2023-12-20T13:38:51;6.50;99.90
20246;DHT22;10281;54.406;18.556;2023-12-20T13:41:17;6.60;99.90
20246;DHT22;10281;54.406;18.556;2023-12-20T13:43:44;6.60;99.90
20246;DHT22;10281;54.406;18.556;2023-12-20T13:46:11;6.60;99.90
20246;DHT22;10281;54.406;18.556;2023-12-20T13:48:39;6.60;99.90
20246;DHT22;10281;54.406;18.556;2023-12-20T13:51:07;6.70;99.90
20246;DHT22;10281;54.406;18.556;2023-12-20T13:53:34;6.70;99.90
20246;DHT22;10281;54.406;18.556;2023-12-20T13:56:00;6.60;99.90
20246;DHT22;10281;54.406;18.556;2023-12-20T13:58:27;6.60;99.90
20246;DHT22;10281;54.406;18.556;2023-12-20T14:00:53;6.50;99.90
20246;DHT22;10281;54.406;18.556;2023-12-20T14:03:20;6.50;99.90
20246;DHT22;10281;54.406;18.556;2023-12-20T14:05:46;6.40;99.90
20246;DHT22;10281;54.406;18.556;2023-12-20T14:08:13;6.40;99.90
20246;DHT22;10281;54.406;18.556;2023-12-20T14:10:40;6.30;99.90
20246;DHT22;10281;54.406;18.556;2023-12-20T14:13:06;6.30;99.90
20246;DHT22;10281;54.406;18.556;2023-12-20T14:15:33;6.30;99.90
20246;DHT22;10281;54.406;18.556;2023-12-20T14:18:03;6.30;99.90
20246;DHT22;10281;54.406;18.556;2023-12-20T14:20:32;6.20;99.90
20246;DHT22;10281;54.406;18.556;2023-12-20T14:23:02;6.20;99.90
20246;DHT22;10281;54.406;18.556;2023-12-20T14:25:29;6.20;99.90
20246;DHT22;10281;54.406;18.556;2023-12-20T14:27:56;6.20;99.90
20246;DHT22;10281;54.406;18.556;2023-12-20T14:30:23;6.10;99.90
20246;DHT22;10281;54.406;18.556;2023-12-20T14:32:50;6.10;99.90
20246;DHT22;10281;54.406;18.556;2023-12-20T14:35:17;6.10;99.90
20246;DHT22;10281;54.406;18.556;2023-12-20T14:37:45;6.10;99.90
20246;DHT22;10281;54.406;18.556;2023-12-20T14:40:12;6.10;99.90
20246;DHT22;10281;54.406;18.556;2023-12-20T14:42:42;6.10;99.90
20246;DHT22;10281;54.406;18.556;2023-12-20T14:45:09;6.10;99.90
20246;DHT22;10281;54.406;18.556;2023-12-20T14:47:36;6.00;99.90
20246;DHT22;10281;54.406;18.556;2023-12-20T14:50:04;6.10;99.90
20246;DHT22;10281;54.406;18.556;2023-12-20T14:52:32;6.10;99.90
20246;DHT22;10281;54.406;18.556;2023-12-20T14:55:01;6.10;99.90
20246;DHT22;10281;54.406;18.556;2023-12-20T14:57:30;6.00;99.90
20246;DHT22;10281;54.406;18.556;2023-12-20T14:59:57;6.10;99.90
20246;DHT22;10281;54.406;18.556;2023-12-20T15:02:24;6.10;99.90
20246;DHT22;10281;54.406;18.556;2023-12-20T15:04:50;6.10;99.90
20246;DHT22;10281;54.406;18.556;2023-12-20T15:07:17;6.10;99.90
20246;DHT22;10281;54.406;18.556;2023-12-20T15:09:44;6.10;99.90
20246;DHT22;10281;54.406;18.556;2023-12-20T15:12:12;6.20;99.90
20246;DHT22;10281;54.406;18.556;2023-12-20T15:14:39;6.20;99.90
20246;DHT22;10281;54.406;18.556;2023-12-20T15:17:06;6.20;99.90
20246;DHT22;10281;54.406;18.556;2023-12-20T15:19:32;6.20;99.90
20246;DHT22;10281;54.406;18.556;2023-12-20T15:21:59;6.30;99.90
20246;DHT22;10281;54.406;18.556;2023-12-20T15:24:26;6.20;99.90
20246;DHT22;10281;54.406;18.556;2023-12-20T15:26:55;6.20;99.90
20246;DHT22;10281;54.406;18.556;2023-12-20T15:29:22;6.30;99.90
20246;DHT22;10281;54.406;18.556;2023-12-20T15:31:48;6.30;99.90